sensor_id;sensor_type;location;lat;lon;timestamp;P1;durP1;ratioP1;P2;durP2;ratioP2
16403;SDS011;8311;50.158;8.642;2023-11-21T00:00:49;0.30;;;0.30;;
16403;SDS011;8311;50.158;8.642;2023-11-21T00:03:41;0.43;;;0.40;;
16403;SDS011;8311;50.158;8.642;2023-11-21T00:06:36;0.40;;;0.40;;
16403;SDS011;8311;50.158;8.642;2023-11-21T00:09:28;0.90;;;0.50;;
16403;SDS011;8311;50.158;8.642;2023-11-21T00:12:21;0.32;;;0.32;;
16403;SDS011;8311;50.158;8.642;2023-11-21T00:15:17;0.95;;;0.47;;
16403;SDS011;8311;50.158;8.642;2023-11-21T00:18:11;0.50;;;0.50;;
16403;SDS011;8311;50.158;8.642;2023-11-21T00:21:05;0.47;;;0.40;;
16403;SDS011;8311;50.158;8.642;2023-11-21T00:23:59;0.45;;;0.43;;
16403;SDS011;8311;50.158;8.642;2023-11-21T00:26:51;0.82;;;0.38;;
16403;SDS011;8311;50.158;8.642;2023-11-21T00:29:45;0.43;;;0.43;;
16403;SDS011;8311;50.158;8.642;2023-11-21T00:32:39;0.50;;;0.50;;
16403;SDS011;8311;50.158;8.642;2023-11-21T00:35:33;0.80;;;0.50;;
16403;SDS011;8311;50.158;8.642;2023-11-21T00:38:26;0.50;;;0.50;;
16403;SDS011;8311;50.158;8.642;2023-11-21T00:41:20;0.50;;;0.50;;
16403;SDS011;8311;50.158;8.642;2023-11-21T00:44:13;0.65;;;0.43;;
16403;SDS011;8311;50.158;8.642;2023-11-21T00:47:07;0.68;;;0.40;;
16403;SDS011;8311;50.158;8.642;2023-11-21T00:50:02;0.60;;;0.40;;
16403;SDS011;8311;50.158;8.642;2023-11-21T00:52:57;1.42;;;0.47;;
16403;SDS011;8311;50.158;8.642;2023-11-21T00:55:50;0.52;;;0.52;;
16403;SDS011;8311;50.158;8.642;2023-11-21T00:58:49;0.20;;;0.20;;
16403;SDS011;8311;50.158;8.642;2023-11-21T01:01:44;1.05;;;0.40;;
16403;SDS011;8311;50.158;8.642;2023-11-21T01:04:37;0.30;;;0.30;;
16403;SDS011;8311;50.158;8.642;2023-11-21T01:07:32;0.43;;;0.30;;
16403;SDS011;8311;50.158;8.642;2023-11-21T01:10:24;0.80;;;0.50;;
16403;SDS011;8311;50.158;8.642;2023-11-21T01:13:17;0.70;;;0.50;;
16403;SDS011;8311;50.158;8.642;2023-11-21T01:16:10;0.63;;;0.43;;
16403;SDS011;8311;50.158;8.642;2023-11-21T01:19:03;0.47;;;0.47;;
16403;SDS011;8311;50.158;8.642;2023-11-21T01:21:57;0.47;;;0.40;;
16403;SDS011;8311;50.158;8.642;2023-11-21T01:24:53;0.70;;;0.57;;
16403;SDS011;8311;50.158;8.642;2023-11-21T01:27:46;0.50;;;0.50;;
16403;SDS011;8311;50.158;8.642;2023-11-21T01:30:39;0.73;;;0.52;;
16403;SDS011;8311;50.158;8.642;2023-11-21T01:33:32;0.40;;;0.40;;
16403;SDS011;8311;50.158;8.642;2023-11-21T01:36:29;0.60;;;0.40;;
16403;SDS011;8311;50.158;8.642;2023-11-21T01:39:24;0.93;;;0.52;;
16403;SDS011;8311;50.158;8.642;2023-11-21T01:42:19;0.55;;;0.40;;
16403;SDS011;8311;50.158;8.642;2023-11-21T01:45:13;0.20;;;0.20;;
16403;SDS011;8311;50.158;8.642;2023-11-21T01:48:07;0.30;;;0.30;;
16403;SDS011;8311;50.158;8.642;2023-11-21T01:51:01;0.95;;;0.60;;
16403;SDS011;8311;50.158;8.642;2023-11-21T01:53:56;0.55;;;0.47;;
16403;SDS011;8311;50.158;8.642;2023-11-21T01:56:50;0.70;;;0.50;;
16403;SDS011;8311;50.158;8.642;2023-11-21T01:59:46;0.50;;;0.40;;
16403;SDS011;8311;50.158;8.642;2023-11-21T02:02:42;0.30;;;0.30;;
16403;SDS011;8311;50.158;8.642;2023-11-21T02:05:36;0.85;;;0.50;;
16403;SDS011;8311;50.158;8.642;2023-11-21T02:08:29;0.45;;;0.40;;
16403;SDS011;8311;50.158;8.642;2023-11-21T02:11:22;0.50;;;0.40;;
16403;SDS011;8311;50.158;8.642;2023-11-21T02:14:16;1.70;;;0.47;;
16403;SDS011;8311;50.158;8.642;2023-11-21T02:17:13;0.30;;;0.30;;
16403;SDS011;8311;50.158;8.642;2023-11-21T02:20:07;0.68;;;0.32;;
16403;SDS011;8311;50.158;8.642;2023-11-21T02:23:08;0.52;;;0.40;;
16403;SDS011;8311;50.158;8.642;2023-11-21T02:26:01;1.00;;;0.47;;
16403;SDS011;8311;50.158;8.642;2023-11-21T02:28:56;0.88;;;0.60;;
16403;SDS011;8311;50.158;8.642;2023-11-21T02:31:51;0.77;;;0.60;;
16403;SDS011;8311;50.158;8.642;2023-11-21T02:34:45;0.52;;;0.43;;
16403;SDS011;8311;50.158;8.642;2023-11-21T02:37:39;0.30;;;0.30;;
16403;SDS011;8311;50.158;8.642;2023-11-21T02:40:36;0.98;;;0.43;;
16403;SDS011;8311;50.158;8.642;2023-11-21T02:43:29;0.75;;;0.45;;
16403;SDS011;8311;50.158;8.642;2023-11-21T02:46:23;0.30;;;0.30;;
16403;SDS011;8311;50.158;8.642;2023-11-21T02:49:16;0.52;;;0.50;;
16403;SDS011;8311;50.158;8.642;2023-11-21T02:52:08;1.42;;;0.55;;
16403;SDS011;8311;50.158;8.642;2023-11-21T02:55:02;0.38;;;0.38;;
16403;SDS011;8311;50.158;8.642;2023-11-21T02:57:56;0.75;;;0.30;;
16403;SDS011;8311;50.158;8.642;2023-11-21T03:00:50;0.40;;;0.40;;
16403;SDS011;8311;50.158;8.642;2023-11-21T03:03:44;0.30;;;0.30;;
16403;SDS011;8311;50.158;8.642;2023-11-21T03:06:39;0.38;;;0.35;;
16403;SDS011;8311;50.158;8.642;2023-11-21T03:09:31;0.45;;;0.40;;
16403;SDS011;8311;50.158;8.642;2023-11-21T03:12:26;0.20;;;0.20;;
16403;SDS011;8311;50.158;8.642;2023-11-21T03:15:20;0.57;;;0.52;;
16403;SDS011;8311;50.158;8.642;2023-11-21T03:18:12;0.40;;;0.40;;
16403;SDS011;8311;50.158;8.642;2023-11-21T03:21:05;0.73;;;0.40;;
16403;SDS011;8311;50.158;8.642;2023-11-21T03:23:59;0.47;;;0.40;;
16403;SDS011;8311;50.158;8.642;2023-11-21T03:26:53;0.30;;;0.30;;
16403;SDS011;8311;50.158;8.642;2023-11-21T03:29:46;1.13;;;0.60;;
16403;SDS011;8311;50.158;8.642;2023-11-21T03:32:42;0.40;;;0.40;;
16403;SDS011;8311;50.158;8.642;2023-11-21T03:35:36;0.30;;;0.30;;
16403;SDS011;8311;50.158;8.642;2023-11-21T03:38:29;0.40;;;0.40;;
16403;SDS011;8311;50.158;8.642;2023-11-21T03:41:23;0.40;;;0.40;;
16403;SDS011;8311;50.158;8.642;2023-11-21T03:44:16;0.82;;;0.40;;
16403;SDS011;8311;50.158;8.642;2023-11-21T03:47:10;0.43;;;0.40;;
16403;SDS011;8311;50.158;8.642;2023-11-21T03:50:05;0.40;;;0.40;;
16403;SDS011;8311;50.158;8.642;2023-11-21T03:52:59;1.02;;;0.63;;
16403;SDS011;8311;50.158;8.642;2023-11-21T03:55:53;0.85;;;0.50;;
16403;SDS011;8311;50.158;8.642;2023-11-21T03:58:46;0.95;;;0.52;;
16403;SDS011;8311;50.158;8.642;2023-11-21T04:01:40;0.60;;;0.43;;
16403;SDS011;8311;50.158;8.642;2023-11-21T04:04:32;0.50;;;0.40;;
16403;SDS011;8311;50.158;8.642;2023-11-21T04:07:27;0.30;;;0.30;;
16403;SDS011;8311;50.158;8.642;2023-11-21T04:10:20;0.40;;;0.40;;
16403;SDS011;8311;50.158;8.642;2023-11-21T04:13:14;0.40;;;0.40;;
16403;SDS011;8311;50.158;8.642;2023-11-21T04:16:07;0.63;;;0.40;;
16403;SDS011;8311;50.158;8.642;2023-11-21T04:19:01;0.22;;;0.22;;
16403;SDS011;8311;50.158;8.642;2023-11-21T04:21:54;0.30;;;0.30;;
16403;SDS011;8311;50.158;8.642;2023-11-21T04:24:49;0.38;;;0.38;;
16403;SDS011;8311;50.158;8.642;2023-11-21T04:27:43;0.40;;;0.40;;
16403;SDS011;8311;50.158;8.642;2023-11-21T04:30:36;0.70;;;0.40;;
16403;SDS011;8311;50.158;8.642;2023-11-21T04:33:31;0.30;;;0.30;;
16403;SDS011;8311;50.158;8.642;2023-11-21T04:36:24;1.30;;;0.57;;
16403;SDS011;8311;50.158;8.642;2023-11-21T04:39:16;1.00;;;0.40;;
16403;SDS011;8311;50.158;8.642;2023-11-21T04:42:13;0.75;;;0.50;;
16403;SDS011;8311;50.158;8.642;2023-11-21T04:45:07;0.40;;;0.40;;
16403;SDS011;8311;50.158;8.642;2023-11-21T04:48:04;0.38;;;0.38;;
16403;SDS011;8311;50.158;8.642;2023-11-21T04:50:58;0.40;;;0.40;;
16403;SDS011;8311;50.158;8.642;2023-11-21T04:53:50;0.55;;;0.40;;
16403;SDS011;8311;50.158;8.642;2023-11-21T04:56:44;0.77;;;0.40;;
16403;SDS011;8311;50.158;8.642;2023-11-21T04:59:38;0.40;;;0.40;;
16403;SDS011;8311;50.158;8.642;2023-11-21T05:02:32;0.40;;;0.35;;
16403;SDS011;8311;50.158;8.642;2023-11-21T05:05:26;0.22;;;0.22;;
16403;SDS011;8311;50.158;8.642;2023-11-21T05:08:21;0.40;;;0.40;;
16403;SDS011;8311;50.158;8.642;2023-11-21T05:11:22;0.68;;;0.45;;
16403;SDS011;8311;50.158;8.642;2023-11-21T05:14:16;0.52;;;0.40;;
16403;SDS011;8311;50.158;8.642;2023-11-21T05:17:11;0.30;;;0.30;;
16403;SDS011;8311;50.158;8.642;2023-11-21T05:20:05;0.43;;;0.40;;
16403;SDS011;8311;50.158;8.642;2023-11-21T05:23:02;0.30;;;0.30;;
16403;SDS011;8311;50.158;8.642;2023-11-21T05:25:55;0.22;;;0.22;;
16403;SDS011;8311;50.158;8.642;2023-11-21T05:28:49;0.30;;;0.30;;
16403;SDS011;8311;50.158;8.642;2023-11-21T05:31:42;0.35;;;0.35;;
16403;SDS011;8311;50.158;8.642;2023-11-21T05:34:37;0.30;;;0.30;;
16403;SDS011;8311;50.158;8.642;2023-11-21T05:37:31;0.73;;;0.40;;
16403;SDS011;8311;50.158;8.642;2023-11-21T05:40:25;0.85;;;0.30;;
16403;SDS011;8311;50.158;8.642;2023-11-21T05:43:21;0.30;;;0.30;;
16403;SDS011;8311;50.158;8.642;2023-11-21T05:46:14;0.38;;;0.30;;
16403;SDS011;8311;50.158;8.642;2023-11-21T05:49:08;0.35;;;0.30;;
16403;SDS011;8311;50.158;8.642;2023-11-21T05:52:02;0.75;;;0.50;;
16403;SDS011;8311;50.158;8.642;2023-11-21T05:54:57;0.30;;;0.30;;
16403;SDS011;8311;50.158;8.642;2023-11-21T05:57:50;0.52;;;0.40;;
16403;SDS011;8311;50.158;8.642;2023-11-21T06:00:43;0.40;;;0.40;;
16403;SDS011;8311;50.158;8.642;2023-11-21T06:03:37;0.45;;;0.35;;
16403;SDS011;8311;50.158;8.642;2023-11-21T06:06:30;0.40;;;0.40;;
16403;SDS011;8311;50.158;8.642;2023-11-21T06:09:25;0.88;;;0.40;;
16403;SDS011;8311;50.158;8.642;2023-11-21T06:12:19;0.30;;;0.30;;
16403;SDS011;8311;50.158;8.642;2023-11-21T06:15:12;0.73;;;0.50;;
16403;SDS011;8311;50.158;8.642;2023-11-21T06:18:06;0.47;;;0.40;;
16403;SDS011;8311;50.158;8.642;2023-11-21T06:21:06;0.43;;;0.35;;
16403;SDS011;8311;50.158;8.642;2023-11-21T06:24:02;0.80;;;0.50;;
16403;SDS011;8311;50.158;8.642;2023-11-21T06:26:56;0.30;;;0.30;;
16403;SDS011;8311;50.158;8.642;2023-11-21T06:29:50;0.47;;;0.40;;
16403;SDS011;8311;50.158;8.642;2023-11-21T06:32:43;0.52;;;0.40;;
16403;SDS011;8311;50.158;8.642;2023-11-21T06:35:39;0.30;;;0.30;;
16403;SDS011;8311;50.158;8.642;2023-11-21T06:38:33;2.05;;;0.40;;
16403;SDS011;8311;50.158;8.642;2023-11-21T06:41:26;0.57;;;0.40;;
16403;SDS011;8311;50.158;8.642;2023-11-21T06:44:20;0.40;;;0.40;;
16403;SDS011;8311;50.158;8.642;2023-11-21T06:47:14;0.35;;;0.35;;
16403;SDS011;8311;50.158;8.642;2023-11-21T06:50:07;0.30;;;0.30;;
16403;SDS011;8311;50.158;8.642;2023-11-21T06:53:01;0.50;;;0.50;;
16403;SDS011;8311;50.158;8.642;2023-11-21T06:55:58;0.85;;;0.30;;
16403;SDS011;8311;50.158;8.642;2023-11-21T06:58:53;0.52;;;0.40;;
16403;SDS011;8311;50.158;8.642;2023-11-21T07:01:47;0.40;;;0.40;;
16403;SDS011;8311;50.158;8.642;2023-11-21T07:04:41;0.60;;;0.47;;
16403;SDS011;8311;50.158;8.642;2023-11-21T07:07:34;0.30;;;0.30;;
16403;SDS011;8311;50.158;8.642;2023-11-21T07:10:29;0.30;;;0.30;;
16403;SDS011;8311;50.158;8.642;2023-11-21T07:13:23;0.68;;;0.45;;
16403;SDS011;8311;50.158;8.642;2023-11-21T07:16:18;0.30;;;0.30;;
16403;SDS011;8311;50.158;8.642;2023-11-21T07:19:12;0.32;;;0.32;;
16403;SDS011;8311;50.158;8.642;2023-11-21T07:22:06;0.40;;;0.40;;
16403;SDS011;8311;50.158;8.642;2023-11-21T07:25:00;0.30;;;0.30;;
16403;SDS011;8311;50.158;8.642;2023-11-21T07:27:53;0.50;;;0.40;;
16403;SDS011;8311;50.158;8.642;2023-11-21T07:30:46;0.80;;;0.50;;
16403;SDS011;8311;50.158;8.642;2023-11-21T07:33:39;0.45;;;0.45;;
16403;SDS011;8311;50.158;8.642;2023-11-21T07:36:33;0.52;;;0.30;;
16403;SDS011;8311;50.158;8.642;2023-11-21T07:39:27;0.32;;;0.32;;
16403;SDS011;8311;50.158;8.642;2023-11-21T07:42:21;0.80;;;0.43;;
16403;SDS011;8311;50.158;8.642;2023-11-21T07:45:14;0.40;;;0.40;;
16403;SDS011;8311;50.158;8.642;2023-11-21T07:48:07;0.65;;;0.47;;
16403;SDS011;8311;50.158;8.642;2023-11-21T07:51:00;0.40;;;0.40;;
16403;SDS011;8311;50.158;8.642;2023-11-21T07:53:56;0.50;;;0.50;;
16403;SDS011;8311;50.158;8.642;2023-11-21T07:56:49;0.28;;;0.28;;
16403;SDS011;8311;50.158;8.642;2023-11-21T07:59:42;1.73;;;1.10;;
16403;SDS011;8311;50.158;8.642;2023-11-21T08:02:35;2.00;;;1.17;;
16403;SDS011;8311;50.158;8.642;2023-11-21T08:05:28;4.47;;;1.45;;
16403;SDS011;8311;50.158;8.642;2023-11-21T08:08:28;2.95;;;1.70;;
16403;SDS011;8311;50.158;8.642;2023-11-21T08:11:22;3.20;;;1.30;;
16403;SDS011;8311;50.158;8.642;2023-11-21T08:14:16;4.43;;;1.63;;
16403;SDS011;8311;50.158;8.642;2023-11-21T08:17:08;3.80;;;1.77;;
16403;SDS011;8311;50.158;8.642;2023-11-21T08:20:04;5.82;;;2.13;;
16403;SDS011;8311;50.158;8.642;2023-11-21T08:23:00;2.38;;;1.13;;
16403;SDS011;8311;50.158;8.642;2023-11-21T08:25:54;6.25;;;1.77;;
16403;SDS011;8311;50.158;8.642;2023-11-21T08:28:49;2.70;;;1.45;;
16403;SDS011;8311;50.158;8.642;2023-11-21T08:31:44;3.80;;;1.25;;
16403;SDS011;8311;50.158;8.642;2023-11-21T08:34:38;2.55;;;1.27;;
16403;SDS011;8311;50.158;8.642;2023-11-21T08:37:35;2.45;;;1.30;;
16403;SDS011;8311;50.158;8.642;2023-11-21T08:40:31;2.15;;;1.17;;
16403;SDS011;8311;50.158;8.642;2023-11-21T08:43:25;2.97;;;1.40;;
16403;SDS011;8311;50.158;8.642;2023-11-21T08:46:20;2.58;;;1.10;;
16403;SDS011;8311;50.158;8.642;2023-11-21T08:49:14;2.65;;;1.10;;
16403;SDS011;8311;50.158;8.642;2023-11-21T08:52:08;3.80;;;1.40;;
16403;SDS011;8311;50.158;8.642;2023-11-21T08:55:01;1.50;;;1.00;;
16403;SDS011;8311;50.158;8.642;2023-11-21T08:57:59;2.30;;;1.27;;
16403;SDS011;8311;50.158;8.642;2023-11-21T09:00:53;1.92;;;1.35;;
16403;SDS011;8311;50.158;8.642;2023-11-21T09:03:48;2.17;;;1.10;;
16403;SDS011;8311;50.158;8.642;2023-11-21T09:06:42;2.92;;;1.23;;
16403;SDS011;8311;50.158;8.642;2023-11-21T09:09:35;2.13;;;1.10;;
16403;SDS011;8311;50.158;8.642;2023-11-21T09:12:28;2.67;;;1.17;;
16403;SDS011;8311;50.158;8.642;2023-11-21T09:15:24;5.05;;;1.30;;
16403;SDS011;8311;50.158;8.642;2023-11-21T09:18:18;4.20;;;1.15;;
16403;SDS011;8311;50.158;8.642;2023-11-21T09:21:13;2.65;;;0.95;;
16403;SDS011;8311;50.158;8.642;2023-11-21T09:24:06;3.28;;;1.30;;
16403;SDS011;8311;50.158;8.642;2023-11-21T09:27:01;1.73;;;1.05;;
16403;SDS011;8311;50.158;8.642;2023-11-21T09:29:54;2.00;;;1.13;;
16403;SDS011;8311;50.158;8.642;2023-11-21T09:32:49;2.00;;;1.08;;
16403;SDS011;8311;50.158;8.642;2023-11-21T09:35:42;16.85;;;3.80;;
16403;SDS011;8311;50.158;8.642;2023-11-21T09:38:37;4.05;;;1.38;;
16403;SDS011;8311;50.158;8.642;2023-11-21T09:41:33;4.25;;;1.60;;
16403;SDS011;8311;50.158;8.642;2023-11-21T09:44:32;5.97;;;2.00;;
16403;SDS011;8311;50.158;8.642;2023-11-21T09:47:28;7.55;;;1.85;;
16403;SDS011;8311;50.158;8.642;2023-11-21T09:50:21;7.57;;;1.95;;
16403;SDS011;8311;50.158;8.642;2023-11-21T09:53:17;7.60;;;2.05;;
16403;SDS011;8311;50.158;8.642;2023-11-21T09:56:14;11.77;;;2.25;;
16403;SDS011;8311;50.158;8.642;2023-11-21T09:59:10;5.82;;;2.08;;
16403;SDS011;8311;50.158;8.642;2023-11-21T10:02:07;4.78;;;1.60;;
16403;SDS011;8311;50.158;8.642;2023-11-21T10:05:04;5.72;;;1.92;;
16403;SDS011;8311;50.158;8.642;2023-11-21T10:08:01;6.65;;;1.73;;
16403;SDS011;8311;50.158;8.642;2023-11-21T10:10:58;4.68;;;1.45;;
16403;SDS011;8311;50.158;8.642;2023-11-21T10:13:54;3.70;;;1.25;;
16403;SDS011;8311;50.158;8.642;2023-11-21T10:16:49;5.03;;;1.33;;
16403;SDS011;8311;50.158;8.642;2023-11-21T10:19:43;8.23;;;2.05;;
16403;SDS011;8311;50.158;8.642;2023-11-21T10:22:39;5.63;;;1.30;;
16403;SDS011;8311;50.158;8.642;2023-11-21T10:25:34;3.85;;;1.55;;
16403;SDS011;8311;50.158;8.642;2023-11-21T10:28:28;4.18;;;1.45;;
16403;SDS011;8311;50.158;8.642;2023-11-21T10:31:23;3.78;;;1.63;;
16403;SDS011;8311;50.158;8.642;2023-11-21T10:34:17;4.32;;;1.42;;
16403;SDS011;8311;50.158;8.642;2023-11-21T10:37:11;2.75;;;1.38;;
16403;SDS011;8311;50.158;8.642;2023-11-21T10:40:08;6.47;;;1.38;;
16403;SDS011;8311;50.158;8.642;2023-11-21T10:43:05;4.45;;;1.73;;
16403;SDS011;8311;50.158;8.642;2023-11-21T10:46:00;4.25;;;1.67;;
16403;SDS011;8311;50.158;8.642;2023-11-21T10:48:55;2.95;;;1.63;;
16403;SDS011;8311;50.158;8.642;2023-11-21T10:51:49;2.53;;;1.13;;
16403;SDS011;8311;50.158;8.642;2023-11-21T10:54:44;9.00;;;1.58;;
16403;SDS011;8311;50.158;8.642;2023-11-21T10:57:38;2.72;;;1.52;;
16403;SDS011;8311;50.158;8.642;2023-11-21T11:00:33;3.78;;;1.50;;
16403;SDS011;8311;50.158;8.642;2023-11-21T11:03:26;5.00;;;1.70;;
16403;SDS011;8311;50.158;8.642;2023-11-21T11:06:21;2.67;;;1.10;;
16403;SDS011;8311;50.158;8.642;2023-11-21T11:09:18;2.42;;;1.35;;
16403;SDS011;8311;50.158;8.642;2023-11-21T11:12:12;4.63;;;1.33;;
16403;SDS011;8311;50.158;8.642;2023-11-21T11:15:10;3.65;;;1.33;;
16403;SDS011;8311;50.158;8.642;2023-11-21T11:18:04;3.30;;;1.38;;
16403;SDS011;8311;50.158;8.642;2023-11-21T11:21:00;3.13;;;0.90;;
16403;SDS011;8311;50.158;8.642;2023-11-21T11:24:08;3.63;;;1.35;;
16403;SDS011;8311;50.158;8.642;2023-11-21T11:27:18;3.22;;;1.10;;
16403;SDS011;8311;50.158;8.642;2023-11-21T11:30:21;3.63;;;1.27;;
16403;SDS011;8311;50.158;8.642;2023-11-21T11:33:31;5.13;;;1.10;;
16403;SDS011;8311;50.158;8.642;2023-11-21T11:36:31;3.35;;;1.42;;
16403;SDS011;8311;50.158;8.642;2023-11-21T11:39:32;3.80;;;1.58;;
16403;SDS011;8311;50.158;8.642;2023-11-21T11:42:28;2.50;;;1.40;;
16403;SDS011;8311;50.158;8.642;2023-11-21T11:45:22;3.38;;;1.50;;
16403;SDS011;8311;50.158;8.642;2023-11-21T11:48:25;3.47;;;1.40;;
16403;SDS011;8311;50.158;8.642;2023-11-21T11:51:19;4.78;;;1.50;;
16403;SDS011;8311;50.158;8.642;2023-11-21T11:54:13;4.00;;;1.73;;
16403;SDS011;8311;50.158;8.642;2023-11-21T11:57:11;4.50;;;1.70;;
16403;SDS011;8311;50.158;8.642;2023-11-21T12:00:09;4.72;;;1.70;;
16403;SDS011;8311;50.158;8.642;2023-11-21T12:03:07;2.65;;;1.33;;
16403;SDS011;8311;50.158;8.642;2023-11-21T12:06:02;2.80;;;1.35;;
16403;SDS011;8311;50.158;8.642;2023-11-21T12:09:00;5.70;;;1.70;;
16403;SDS011;8311;50.158;8.642;2023-11-21T12:11:56;4.05;;;1.60;;
16403;SDS011;8311;50.158;8.642;2023-11-21T12:14:50;2.88;;;1.38;;
16403;SDS011;8311;50.158;8.642;2023-11-21T12:17:44;3.63;;;1.80;;
16403;SDS011;8311;50.158;8.642;2023-11-21T12:20:38;4.90;;;1.50;;
16403;SDS011;8311;50.158;8.642;2023-11-21T12:23:32;3.42;;;1.75;;
16403;SDS011;8311;50.158;8.642;2023-11-21T12:26:26;2.78;;;1.30;;
16403;SDS011;8311;50.158;8.642;2023-11-21T12:29:20;2.33;;;1.20;;
16403;SDS011;8311;50.158;8.642;2023-11-21T12:32:15;3.75;;;1.77;;
16403;SDS011;8311;50.158;8.642;2023-11-21T12:35:10;3.58;;;1.77;;
16403;SDS011;8311;50.158;8.642;2023-11-21T12:38:04;6.20;;;1.70;;
16403;SDS011;8311;50.158;8.642;2023-11-21T12:41:00;4.55;;;1.27;;
16403;SDS011;8311;50.158;8.642;2023-11-21T12:43:54;2.72;;;1.50;;
16403;SDS011;8311;50.158;8.642;2023-11-21T12:46:48;2.28;;;1.35;;
16403;SDS011;8311;50.158;8.642;2023-11-21T12:49:42;2.28;;;1.25;;
16403;SDS011;8311;50.158;8.642;2023-11-21T12:52:36;2.33;;;1.13;;
16403;SDS011;8311;50.158;8.642;2023-11-21T12:55:30;3.17;;;1.52;;
16403;SDS011;8311;50.158;8.642;2023-11-21T12:58:25;2.78;;;1.40;;
16403;SDS011;8311;50.158;8.642;2023-11-21T13:01:18;3.22;;;1.60;;
16403;SDS011;8311;50.158;8.642;2023-11-21T13:04:14;1.75;;;1.00;;
16403;SDS011;8311;50.158;8.642;2023-11-21T13:07:09;2.50;;;1.33;;
16403;SDS011;8311;50.158;8.642;2023-11-21T13:10:06;2.40;;;1.30;;
16403;SDS011;8311;50.158;8.642;2023-11-21T13:13:01;2.25;;;1.33;;
16403;SDS011;8311;50.158;8.642;2023-11-21T13:15:56;1.63;;;1.10;;
16403;SDS011;8311;50.158;8.642;2023-11-21T13:18:55;2.63;;;1.30;;
16403;SDS011;8311;50.158;8.642;2023-11-21T13:21:48;2.88;;;1.33;;
16403;SDS011;8311;50.158;8.642;2023-11-21T13:24:43;4.35;;;1.40;;
16403;SDS011;8311;50.158;8.642;2023-11-21T13:27:36;2.75;;;1.60;;
16403;SDS011;8311;50.158;8.642;2023-11-21T13:30:30;2.97;;;1.45;;
16403;SDS011;8311;50.158;8.642;2023-11-21T13:33:25;2.60;;;1.40;;
16403;SDS011;8311;50.158;8.642;2023-11-21T13:36:19;1.92;;;1.10;;
16403;SDS011;8311;50.158;8.642;2023-11-21T13:39:14;2.28;;;1.23;;
16403;SDS011;8311;50.158;8.642;2023-11-21T13:42:12;2.60;;;1.20;;
16403;SDS011;8311;50.158;8.642;2023-11-21T13:45:06;2.15;;;1.20;;
16403;SDS011;8311;50.158;8.642;2023-11-21T13:48:00;1.23;;;0.90;;
16403;SDS011;8311;50.158;8.642;2023-11-21T13:50:53;3.35;;;1.38;;
16403;SDS011;8311;50.158;8.642;2023-11-21T13:53:50;1.88;;;1.10;;
16403;SDS011;8311;50.158;8.642;2023-11-21T13:56:44;1.52;;;1.13;;
16403;SDS011;8311;50.158;8.642;2023-11-21T13:59:42;1.40;;;1.08;;
16403;SDS011;8311;50.158;8.642;2023-11-21T14:02:35;2.03;;;1.25;;
16403;SDS011;8311;50.158;8.642;2023-11-21T14:05:34;3.17;;;0.93;;
16403;SDS011;8311;50.158;8.642;2023-11-21T14:08:27;2.72;;;1.00;;
16403;SDS011;8311;50.158;8.642;2023-11-21T14:11:20;2.30;;;1.00;;
16403;SDS011;8311;50.158;8.642;2023-11-21T14:14:18;1.45;;;0.95;;
16403;SDS011;8311;50.158;8.642;2023-11-21T14:17:14;2.17;;;1.20;;
16403;SDS011;8311;50.158;8.642;2023-11-21T14:20:07;2.28;;;1.13;;
16403;SDS011;8311;50.158;8.642;2023-11-21T14:23:07;1.23;;;0.90;;
16403;SDS011;8311;50.158;8.642;2023-11-21T14:26:01;1.02;;;0.90;;
16403;SDS011;8311;50.158;8.642;2023-11-21T14:28:55;2.15;;;1.00;;
16403;SDS011;8311;50.158;8.642;2023-11-21T14:31:48;1.77;;;1.10;;
16403;SDS011;8311;50.158;8.642;2023-11-21T14:34:44;1.55;;;1.02;;
16403;SDS011;8311;50.158;8.642;2023-11-21T14:37:39;1.35;;;1.05;;
16403;SDS011;8311;50.158;8.642;2023-11-21T14:40:34;1.48;;;1.38;;
16403;SDS011;8311;50.158;8.642;2023-11-21T14:43:27;2.78;;;1.20;;
16403;SDS011;8311;50.158;8.642;2023-11-21T14:46:25;2.10;;;1.02;;
16403;SDS011;8311;50.158;8.642;2023-11-21T14:49:18;1.75;;;0.88;;
16403;SDS011;8311;50.158;8.642;2023-11-21T14:52:12;1.77;;;1.13;;
16403;SDS011;8311;50.158;8.642;2023-11-21T14:55:23;2.72;;;1.10;;
16403;SDS011;8311;50.158;8.642;2023-11-21T14:58:22;1.88;;;1.00;;
16403;SDS011;8311;50.158;8.642;2023-11-21T15:01:18;1.55;;;1.15;;
16403;SDS011;8311;50.158;8.642;2023-11-21T15:04:18;1.17;;;0.80;;
16403;SDS011;8311;50.158;8.642;2023-11-21T15:07:24;2.00;;;1.02;;
16403;SDS011;8311;50.158;8.642;2023-11-21T15:10:18;1.83;;;0.90;;
16403;SDS011;8311;50.158;8.642;2023-11-21T15:13:20;1.77;;;1.20;;
16403;SDS011;8311;50.158;8.642;2023-11-21T15:16:13;1.42;;;1.10;;
16403;SDS011;8311;50.158;8.642;2023-11-21T15:19:06;1.80;;;1.10;;
16403;SDS011;8311;50.158;8.642;2023-11-21T15:22:00;1.63;;;1.13;;
16403;SDS011;8311;50.158;8.642;2023-11-21T15:24:56;1.15;;;0.95;;
16403;SDS011;8311;50.158;8.642;2023-11-21T15:27:49;1.38;;;1.00;;
16403;SDS011;8311;50.158;8.642;2023-11-21T15:30:42;1.58;;;1.00;;
16403;SDS011;8311;50.158;8.642;2023-11-21T15:33:38;1.85;;;1.15;;
16403;SDS011;8311;50.158;8.642;2023-11-21T15:36:31;1.40;;;1.00;;
16403;SDS011;8311;50.158;8.642;2023-11-21T15:39:25;1.85;;;0.80;;
16403;SDS011;8311;50.158;8.642;2023-11-21T15:42:23;1.80;;;1.00;;
16403;SDS011;8311;50.158;8.642;2023-11-21T15:45:16;1.88;;;1.10;;
16403;SDS011;8311;50.158;8.642;2023-11-21T15:48:12;1.65;;;1.00;;
16403;SDS011;8311;50.158;8.642;2023-11-21T15:51:05;0.90;;;0.90;;
16403;SDS011;8311;50.158;8.642;2023-11-21T15:54:01;2.85;;;1.23;;
16403;SDS011;8311;50.158;8.642;2023-11-21T15:56:56;1.63;;;0.90;;
16403;SDS011;8311;50.158;8.642;2023-11-21T15:59:51;2.45;;;0.82;;
16403;SDS011;8311;50.158;8.642;2023-11-21T16:02:45;1.77;;;0.93;;
16403;SDS011;8311;50.158;8.642;2023-11-21T16:05:39;1.00;;;0.85;;
16403;SDS011;8311;50.158;8.642;2023-11-21T16:08:34;1.10;;;0.93;;
16403;SDS011;8311;50.158;8.642;2023-11-21T16:11:27;1.77;;;0.90;;
16403;SDS011;8311;50.158;8.642;2023-11-21T16:14:22;1.65;;;0.90;;
16403;SDS011;8311;50.158;8.642;2023-11-21T16:17:18;1.55;;;1.00;;
16403;SDS011;8311;50.158;8.642;2023-11-21T16:20:13;1.77;;;1.13;;
16403;SDS011;8311;50.158;8.642;2023-11-21T16:23:07;1.92;;;1.40;;
16403;SDS011;8311;50.158;8.642;2023-11-21T16:26:00;1.35;;;1.08;;
16403;SDS011;8311;50.158;8.642;2023-11-21T16:28:53;1.05;;;0.88;;
16403;SDS011;8311;50.158;8.642;2023-11-21T16:31:46;2.15;;;1.08;;
16403;SDS011;8311;50.158;8.642;2023-11-21T16:34:41;1.45;;;0.93;;
16403;SDS011;8311;50.158;8.642;2023-11-21T16:37:35;1.23;;;0.75;;
16403;SDS011;8311;50.158;8.642;2023-11-21T16:40:28;1.80;;;0.85;;
16403;SDS011;8311;50.158;8.642;2023-11-21T16:43:21;1.02;;;0.90;;
16403;SDS011;8311;50.158;8.642;2023-11-21T16:46:14;1.30;;;0.80;;
16403;SDS011;8311;50.158;8.642;2023-11-21T16:49:07;1.17;;;0.85;;
16403;SDS011;8311;50.158;8.642;2023-11-21T16:52:02;1.08;;;0.95;;
16403;SDS011;8311;50.158;8.642;2023-11-21T16:54:59;1.23;;;0.90;;
16403;SDS011;8311;50.158;8.642;2023-11-21T16:57:52;1.13;;;1.00;;
16403;SDS011;8311;50.158;8.642;2023-11-21T17:00:45;1.08;;;0.88;;
16403;SDS011;8311;50.158;8.642;2023-11-21T17:03:38;1.05;;;0.90;;
16403;SDS011;8311;50.158;8.642;2023-11-21T17:06:31;2.35;;;0.90;;
16403;SDS011;8311;50.158;8.642;2023-11-21T17:09:25;1.10;;;0.98;;
16403;SDS011;8311;50.158;8.642;2023-11-21T17:12:18;1.20;;;0.75;;
16403;SDS011;8311;50.158;8.642;2023-11-21T17:15:12;1.40;;;0.80;;
16403;SDS011;8311;50.158;8.642;2023-11-21T17:18:05;1.75;;;1.05;;
16403;SDS011;8311;50.158;8.642;2023-11-21T17:20:59;1.02;;;0.82;;
16403;SDS011;8311;50.158;8.642;2023-11-21T17:23:52;0.70;;;0.65;;
16403;SDS011;8311;50.158;8.642;2023-11-21T17:26:47;1.15;;;0.90;;
16403;SDS011;8311;50.158;8.642;2023-11-21T17:29:40;0.63;;;0.63;;
16403;SDS011;8311;50.158;8.642;2023-11-21T17:32:33;1.25;;;0.90;;
16403;SDS011;8311;50.158;8.642;2023-11-21T17:35:27;0.85;;;0.73;;
16403;SDS011;8311;50.158;8.642;2023-11-21T17:38:20;1.42;;;0.88;;
16403;SDS011;8311;50.158;8.642;2023-11-21T17:41:13;0.82;;;0.70;;
16403;SDS011;8311;50.158;8.642;2023-11-21T17:44:13;1.00;;;0.80;;
16403;SDS011;8311;50.158;8.642;2023-11-21T17:47:06;1.23;;;0.90;;